Time;durP1;ratioP1;P1;durP2;ratioP2;P2;SDS_P1;SDS_P2;PMS_P1;PMS_P2;Temp;Humidity;BMP_temperature;BMP_pressure;BME280_temperature;BME280_humidity;BME280_pressure;Samples;Min_cycle;Max_cycle;Signal;HPM_P1;HPM_P2
2022/12/06 00:02:16;;;;;;;;;;;;;;;;;;5078323;28;7478;-67
2022/12/06 00:04:45;;;;;;;;;;;;;;;;;;5077871;28;6894;-67
2022/12/06 00:07:12;;;;;;;;;;;;;;;;;;5078776;28;7052;-67
2022/12/06 00:09:37;;;;;;;;;;;;;;;;;;5077730;28;8004;-67
2022/12/06 00:12:03;;;;;;;;;;;;;;;;;;5077927;28;7245;-67
2022/12/06 00:15:01;;;;;;;;;;;;;;;;;;5077755;28;7236;-67
2022/12/06 00:17:26;;;;;;;;;;;;;;;;;;5077612;28;7595;-67
2022/12/06 00:19:53;;;;;;;;;;;;;;;;;;5077584;28;7335;-67
2022/12/06 00:22:18;;;;;;;;;;;;;;;;;;5077659;28;7075;-67
2022/12/06 00:24:53;;;;;;;;;;;;;;;;;;5077821;28;7115;-67
2022/12/06 00:27:28;;;;;;;;;;;;;;;;;;5077421;28;7604;-67
2022/12/06 00:29:54;;;;;;;;;;;;;;;;;;5077528;28;7133;-67
2022/12/06 00:32:19;;;;;;;;;;;;;;;;;;5077386;28;6852;-67
2022/12/06 00:34:55;;;;;;;;;;;;;;;;;;5077359;28;7127;-67
2022/12/06 00:37:21;;;;;;;;;;;;;;;;;;5076881;28;7926;-67
2022/12/06 00:39:49;;;;;;;;;;;;;;;;;;5059627;28;7006;-67
2022/12/06 00:42:14;;;;;;;;;;;;;;;;;;5077010;28;7376;-67
2022/12/06 00:44:43;;;;;;;;;;;;;;;;;;5078087;28;7094;-64
2022/12/06 00:47:14;;;;;;;;;;;;;;;;;;5076902;28;7022;-64
2022/12/06 00:49:40;;;;;;;;;;;;;;;;;;5077061;28;6862;-67
2022/12/06 00:52:05;;;;;;;;;;;;;;;;;;5076901;28;7389;-67
2022/12/06 00:54:31;;;;;;;;;;;;;;;;;;5077015;28;6908;-67
2022/12/06 00:56:56;;;;;;;;;;;;;;;;;;5076868;28;7050;-67
2022/12/06 00:59:39;;;;;;;;;;;;;;;;;;5076788;28;7083;-67
2022/12/06 01:02:06;;;;;;;;;;;;;;;;;;5075645;28;7212;-67
2022/12/06 01:04:32;;;;;;;;;;;;;;;;;;5076740;28;7130;-67
2022/12/06 01:06:59;;;;;;;;;;;;;;;;;;5076231;28;7837;-67
2022/12/06 01:09:29;;;;;;;;;;;;;;;;;;5076637;28;7784;-67
2022/12/06 01:11:56;;;;;;;;;;;;;;;;;;5076351;28;7054;-67
2022/12/06 01:14:26;;;;;;;;;;;;;;;;;;5076448;28;7111;-67
2022/12/06 01:16:52;;;;;;;;;;;;;;;;;;5076215;28;7050;-67
2022/12/06 01:19:25;;;;;;;;;;;;;;;;;;5076346;28;7441;-67
2022/12/06 01:21:51;;;;;;;;;;;;;;;;;;5076422;28;7094;-67
2022/12/06 01:24:16;;;;;;;;;;;;;;;;;;5076412;28;7009;-67
2022/12/06 01:29:41;;;;;;;;;;;;;;;;;;5075918;28;6968;-67
2022/12/06 01:32:07;;;;;;;;;;;;;;;;;;5076257;28;7052;-67
2022/12/06 01:34:35;;;;;;;;;;;;;;;;;;5076109;28;7051;-67
2022/12/06 01:37:01;;;;;;;;;;;;;;;;;;5076286;28;7199;-67
2022/12/06 01:39:26;;;;;;;;;;;;;;;;;;5076002;28;7129;-67
2022/12/06 01:42:25;;;;;;;;;;;;;;;;;;5076103;28;7130;-67
2022/12/06 01:44:53;;;;;;;;;;;;;;;;;;5057863;28;8648;-67
2022/12/06 01:47:23;;;;;;;;;;;;;;;;;;5075693;28;6936;-67
2022/12/06 01:55:46;;;;;;;;;;;;;;;;;;5076093;28;6800;-67
2022/12/06 01:58:17;;;;;;;;;;;;;;;;;;5076488;28;7037;-67
2022/12/06 02:00:43;;;;;;;;;;;;;;;;;;5075596;28;6948;-67
2022/12/06 02:03:27;;;;;;;;;;;;;;;;;;5076463;28;7140;-67
2022/12/06 02:05:55;;;;;;;;;;;;;;;;;;5075616;28;6925;-67
2022/12/06 02:08:23;;;;;;;;;;;;;;;;;;5076145;28;7183;-64
2022/12/06 02:11:13;;;;;;;;;;;;;;;;;;5075696;28;7174;-64
2022/12/06 02:13:39;;;;;;;;;;;;;;;;;;5075222;28;7247;-64
2022/12/06 02:16:05;;;;;;;;;;;;;;;;;;5075353;28;7280;-64
2022/12/06 02:18:31;;;;;;;;;;;;;;;;;;5075585;28;6933;-64
2022/12/06 02:21:09;;;;;;;;;;;;;;;;;;5075339;28;7125;-64
2022/12/06 02:24:19;;;;;;;;;;;;;;;;;;5076207;28;6916;-64
2022/12/06 02:26:51;;;;;;;;;;;;;;;;;;5075311;28;7218;-64
2022/12/06 02:29:16;;;;;;;;;;;;;;;;;;5079272;28;7274;-64
2022/12/06 02:31:55;;;;;;;;;;;;;;;;;;5075498;28;7140;-64
2022/12/06 02:34:45;;;;;;;;;;;;;;;;;;5075200;28;7180;-64
2022/12/06 02:37:14;;;;;;;;;;;;;;;;;;5075048;28;7490;-64
2022/12/06 02:39:59;;;;;;;;;;;;;;;;;;5074943;28;7236;-64
2022/12/06 02:42:33;;;;;;;;;;;;;;;;;;5074661;28;7204;-64
2022/12/06 02:45:03;;;;;;;;;;;;;;;;;;5074853;28;7477;-64
2022/12/06 02:47:35;;;;;;;;;;;;;;;;;;5075392;28;6955;-64
2022/12/06 02:50:05;;;;;;;;;;;;;;;;;;5074874;28;6939;-64
2022/12/06 02:53:01;;;;;;;;;;;;;;;;;;5074522;28;7965;-64
2022/12/06 02:55:28;;;;;;;;;;;;;;;;;;5074719;28;7188;-64
2022/12/06 02:57:56;;;;;;;;;;;;;;;;;;5075859;28;7133;-64
2022/12/06 03:00:25;;;;;;;;;;;;;;;;;;5074577;28;7288;-64
2022/12/06 03:03:07;;;;;;;;;;;;;;;;;;5074729;28;7182;-64
2022/12/06 03:05:39;;;;;;;;;;;;;;;;;;5074562;28;7014;-64
2022/12/06 03:08:12;;;;;;;;;;;;;;;;;;5074480;28;7059;-64
2022/12/06 03:10:44;;;;;;;;;;;;;;;;;;5074663;28;7127;-64
2022/12/06 03:13:19;;;;;;;;;;;;;;;;;;5074652;28;7373;-64
2022/12/06 03:15:45;;;;;;;;;;;;;;;;;;5074479;28;7060;-64
2022/12/06 03:18:17;;;;;;;;;;;;;;;;;;5075331;28;7304;-64
2022/12/06 03:20:47;;;;;;;;;;;;;;;;;;5074353;28;7293;-64
2022/12/06 03:23:16;;;;;;;;;;;;;;;;;;5074555;28;7217;-64
2022/12/06 03:25:45;;;;;;;;;;;;;;;;;;5076333;28;7386;-64
2022/12/06 03:28:16;;;;;;;;;;;;;;;;;;5080510;28;7118;-64
2022/12/06 03:30:47;;;;;;;;;;;;;;;;;;5078483;28;7190;-64
2022/12/06 03:33:14;;;;;;;;;;;;;;;;;;5078543;28;6855;-64
2022/12/06 03:35:52;;;;;;;;;;;;;;;;;;5078206;28;6950;-64
2022/12/06 03:38:21;;;;;;;;;;;;;;;;;;5078543;28;7146;-64
2022/12/06 03:41:20;;;;;;;;;;;;;;;;;;5078322;28;7049;-64
2022/12/06 03:43:46;;;;;;;;;;;;;;;;;;5078487;28;7224;-64
2022/12/06 03:46:17;;;;;;;;;;;;;;;;;;5078275;28;7096;-64
2022/12/06 03:49:20;;;;;;;;;;;;;;;;;;5078850;28;7023;-64
2022/12/06 03:51:47;;;;;;;;;;;;;;;;;;5077850;28;6901;-64
2022/12/06 03:54:13;;;;;;;;;;;;;;;;;;5078453;28;6918;-64
2022/12/06 03:56:40;;;;;;;;;;;;;;;;;;5078847;28;7121;-64
2022/12/06 03:59:07;;;;;;;;;;;;;;;;;;5077950;28;7135;-64
2022/12/06 04:01:34;;;;;;;;;;;;;;;;;;5077617;28;7194;-64
2022/12/06 04:03:59;;;;;;;;;;;;;;;;;;5059971;28;8391;-64
2022/12/06 04:06:25;;;;;;;;;;;;;;;;;;5059845;28;8504;-64
2022/12/06 04:08:51;;;;;;;;;;;;;;;;;;5059641;28;7228;-64
2022/12/06 04:11:17;;;;;;;;;;;;;;;;;;5077878;28;7329;-64
2022/12/06 04:13:43;;;;;;;;;;;;;;;;;;5077423;28;6903;-64
2022/12/06 04:18:54;;;;;;;;;;;;;;;;;;5077891;28;6788;-64
2022/12/06 04:23:58;;;;;;;;;;;;;;;;;;5077587;28;6910;-64
2022/12/06 04:26:25;;;;;;;;;;;;;;;;;;5077627;28;7246;-64
2022/12/06 04:40:08;;;;;;;;;;;;;;;;;;5077257;28;6800;-64
2022/12/06 04:45:17;;;;;;;;;;;;;;;;;;5077544;28;6792;-64
2022/12/06 04:47:43;;;;;;;;;;;;;;;;;;5076922;28;7174;-64
2022/12/06 04:50:14;;;;;;;;;;;;;;;;;;5077163;28;6936;-64
2022/12/06 04:52:40;;;;;;;;;;;;;;;;;;5077273;28;7196;-64
2022/12/06 04:55:05;;;;;;;;;;;;;;;;;;5076937;28;7128;-64
2022/12/06 04:57:33;;;;;;;;;;;;;;;;;;5076984;28;6908;-64
2022/12/06 04:59:59;;;;;;;;;;;;;;;;;;5076683;28;7255;-64
2022/12/06 05:02:24;;;;;;;;;;;;;;;;;;5076458;28;7092;-64
2022/12/06 05:04:50;;;;;;;;;;;;;;;;;;5077510;28;6929;-64
2022/12/06 05:07:16;;;;;;;;;;;;;;;;;;5076781;28;7055;-64
2022/12/06 05:09:47;;;;;;;;;;;;;;;;;;5076296;28;7185;-64
2022/12/06 05:12:13;;;;;;;;;;;;;;;;;;5076916;28;7234;-64
2022/12/06 05:14:45;;;;;;;;;;;;;;;;;;5076661;28;7004;-64
2022/12/06 05:17:10;;;;;;;;;;;;;;;;;;5076539;28;7038;-64
2022/12/06 05:19:36;;;;;;;;;;;;;;;;;;5076543;28;7109;-64
2022/12/06 05:22:07;;;;;;;;;;;;;;;;;;5076102;28;7119;-64
2022/12/06 05:24:33;;;;;;;;;;;;;;;;;;5076413;28;7177;-64
2022/12/06 05:26:59;;;;;;;;;;;;;;;;;;5076848;28;7212;-64
2022/12/06 05:29:25;;;;;;;;;;;;;;;;;;5076237;28;6795;-64
2022/12/06 05:31:58;;;;;;;;;;;;;;;;;;5076400;28;7109;-65
2022/12/06 05:34:24;;;;;;;;;;;;;;;;;;5076292;28;6995;-65
2022/12/06 05:37:03;;;;;;;;;;;;;;;;;;5076254;28;7099;-65
2022/12/06 05:39:29;;;;;;;;;;;;;;;;;;5075961;28;7129;-65
2022/12/06 05:44:57;;;;;;;;;;;;;;;;;;5055881;28;6825;-64
2022/12/06 05:47:42;;;;;;;;;;;;;;;;;;5055705;28;7056;-64
2022/12/06 05:50:08;;;;;;;;;;;;;;;;;;5055920;28;7084;-64
2022/12/06 05:52:43;;;;;;;;;;;;;;;;;;5055803;28;7110;-65
2022/12/06 05:55:09;;;;;;;;;;;;;;;;;;5055808;28;7293;-65
2022/12/06 05:57:34;;;;;;;;;;;;;;;;;;5056334;28;6931;-64
2022/12/06 06:00:19;;;;;;;;;;;;;;;;;;5055260;28;6990;-67
2022/12/06 06:02:46;;;;;;;;;;;;;;;;;;5055623;28;6872;-67
2022/12/06 06:05:14;;;;;;;;;;;;;;;;;;5055823;28;7029;-67
2022/12/06 06:07:40;;;;;;;;;;;;;;;;;;5055580;28;7174;-67
2022/12/06 06:10:15;;;;;;;;;;;;;;;;;;5037541;28;6990;-67
2022/12/06 06:12:41;;;;;;;;;;;;;;;;;;5055429;28;6922;-67
2022/12/06 06:15:08;;;;;;;;;;;;;;;;;;5055313;28;6945;-67
2022/12/06 06:17:34;;;;;;;;;;;;;;;;;;5055321;28;7187;-67
2022/12/06 06:20:06;;;;;;;;;;;;;;;;;;5055224;28;7241;-67
2022/12/06 06:22:33;;;;;;;;;;;;;;;;;;5055341;28;7561;-67
2022/12/06 06:25:00;;;;;;;;;;;;;;;;;;5055205;28;7357;-64
2022/12/06 06:27:27;;;;;;;;;;;;;;;;;;5055025;28;7050;-65
2022/12/06 06:29:53;;;;;;;;;;;;;;;;;;5067896;28;7002;-67
2022/12/06 06:32:18;;;;;;;;;;;;;;;;;;5075060;28;7108;-68
2022/12/06 06:34:57;;;;;;;;;;;;;;;;;;5074829;28;7206;-68
2022/12/06 06:37:22;;;;;;;;;;;;;;;;;;5075116;28;7214;-68
2022/12/06 06:39:49;;;;;;;;;;;;;;;;;;5074826;28;8009;-71
2022/12/06 06:42:30;;;;;;;;;;;;;;;;;;5074836;28;6958;-68
2022/12/06 06:44:56;;;;;;;;;;;;;;;;;;5074523;28;6872;-68
2022/12/06 06:47:22;;;;;;;;;;;;;;;;;;5074801;28;7056;-68
2022/12/06 06:49:47;;;;;;;;;;;;;;;;;;5074586;28;7177;-68
2022/12/06 06:52:13;;;;;;;;;;;;;;;;;;5072573;28;7171;-68
2022/12/06 06:54:39;;;;;;;;;;;;;;;;;;5074775;28;7383;-68
2022/12/06 06:57:05;;;;;;;;;;;;;;;;;;5074798;28;7146;-68
2022/12/06 06:59:30;;;;;;;;;;;;;;;;;;5074008;28;7184;-68
2022/12/06 07:01:57;;;;;;;;;;;;;;;;;;5074411;28;6925;-67
2022/12/06 07:04:23;;;;;;;;;;;;;;;;;;5074483;28;7367;-67
2022/12/06 07:06:49;;;;;;;;;;;;;;;;;;5074670;28;7089;-67
2022/12/06 07:09:14;;;;;;;;;;;;;;;;;;5074521;28;7435;-67
2022/12/06 07:11:40;;;;;;;;;;;;;;;;;;5074682;28;7041;-67
2022/12/06 07:14:06;;;;;;;;;;;;;;;;;;5074649;28;7112;-67
2022/12/06 07:16:32;;;;;;;;;;;;;;;;;;5074499;28;7002;-67
2022/12/06 07:18:57;;;;;;;;;;;;;;;;;;5075141;28;6931;-67
2022/12/06 07:21:23;;;;;;;;;;;;;;;;;;5074426;28;7142;-67
2022/12/06 07:23:50;;;;;;;;;;;;;;;;;;5075571;28;7130;-67
2022/12/06 07:26:17;;;;;;;;;;;;;;;;;;5073978;28;7192;-67
2022/12/06 07:28:44;;;;;;;;;;;;;;;;;;5075009;28;7078;-67
2022/12/06 07:31:14;;;;;;;;;;;;;;;;;;5074120;28;7241;-67
2022/12/06 07:33:41;;;;;;;;;;;;;;;;;;5074358;28;7131;-67
2022/12/06 07:36:08;;;;;;;;;;;;;;;;;;5074247;28;7186;-67
2022/12/06 07:38:34;;;;;;;;;;;;;;;;;;5074334;28;7089;-67
2022/12/06 07:41:01;;;;;;;;;;;;;;;;;;5074199;28;7053;-67
2022/12/06 07:46:11;;;;;;;;;;;;;;;;;;5074482;28;6925;-67
2022/12/06 07:48:40;;;;;;;;;;;;;;;;;;5074402;28;6928;-67
2022/12/06 07:51:23;;;;;;;;;;;;;;;;;;5073481;28;7172;-67
2022/12/06 07:53:49;;;;;;;;;;;;;;;;;;5074265;28;7504;-67
2022/12/06 07:56:17;;;;;;;;;;;;;;;;;;5073506;28;7172;-67
2022/12/06 08:01:10;;;;;;;;;;;;;;;;;;5044977;28;7387;-64
2022/12/06 08:03:37;;;;;;;;;;;;;;;;;;5054226;28;6999;-63
2022/12/06 08:06:03;;;;;;;;;;;;;;;;;;5054371;28;7034;-63
2022/12/06 08:08:30;;;;;;;;;;;;;;;;;;5054253;28;7179;-63
2022/12/06 08:11:06;;;;;;;;;;;;;;;;;;5054500;28;6957;-63
2022/12/06 08:13:32;;;;;;;;;;;;;;;;;;5057672;28;7302;-63
2022/12/06 08:15:58;;;;;;;;;;;;;;;;;;5043492;28;7063;-63
2022/12/06 08:18:24;;;;;;;;;;;;;;;;;;5077362;28;8054;-63
2022/12/06 08:20:52;;;;;;;;;;;;;;;;;;5077811;28;7163;-63
2022/12/06 08:23:18;;;;;;;;;;;;;;;;;;5077393;28;7058;-63
2022/12/06 08:25:44;;;;;;;;;;;;;;;;;;5077556;28;7142;-63
2022/12/06 08:28:09;;;;;;;;;;;;;;;;;;5077336;28;7170;-63
2022/12/06 08:30:38;;;;;;;;;;;;;;;;;;5077511;28;7143;-63
2022/12/06 08:33:04;;;;;;;;;;;;;;;;;;5077537;28;7152;-64
2022/12/06 08:35:30;;;;;;;;;;;;;;;;;;5077433;28;7188;-69
2022/12/06 08:37:56;;;;;;;;;;;;;;;;;;5077544;28;7392;-63
2022/12/06 08:40:21;;;;;;;;;;;;;;;;;;5076947;28;7867;-63
2022/12/06 08:42:47;;;;;;;;;;;;;;;;;;5077173;28;8307;-63
2022/12/06 08:45:13;;;;;;;;;;;;;;;;;;5077336;28;7110;-63
2022/12/06 08:47:38;;;;;;;;;;;;;;;;;;5077490;28;6934;-63
2022/12/06 08:50:04;;;;;;;;;;;;;;;;;;5077623;28;7132;-63
2022/12/06 08:52:30;;;;;;;;;;;;;;;;;;5077372;28;6961;-63
2022/12/06 08:54:56;;;;;;;;;;;;;;;;;;5077310;28;7098;-63
2022/12/06 08:57:21;;;;;;;;;;;;;;;;;;5077107;28;6977;-63
2022/12/06 08:59:47;;;;;;;;;;;;;;;;;;5051292;28;6984;-63
2022/12/06 09:05:15;;;;;;;;;;;;;;;;;;5076488;28;6677;-64
2022/12/06 09:07:41;;;;;;;;;;;;;;;;;;5075385;28;8440;-63
2022/12/06 09:10:18;;;;;;;;;;;;;;;;;;5076860;28;7320;-63
2022/12/06 09:12:43;;;;;;;;;;;;;;;;;;5076789;28;7076;-63
2022/12/06 09:15:24;;;;;;;;;;;;;;;;;;5076857;28;7385;-63
2022/12/06 09:17:50;;;;;;;;;;;;;;;;;;5076522;28;7075;-64
2022/12/06 09:20:17;;;;;;;;;;;;;;;;;;5058674;28;7011;-64
2022/12/06 09:22:48;;;;;;;;;;;;;;;;;;5075211;28;7075;-64
2022/12/06 09:25:13;;;;;;;;;;;;;;;;;;5076288;28;6944;-63
2022/12/06 09:30:42;;;;;;;;;;;;;;;;;;5076332;28;6681;-64
2022/12/06 09:33:07;;;;;;;;;;;;;;;;;;5075775;28;7208;-63
2022/12/06 09:35:43;;;;;;;;;;;;;;;;;;5076441;28;7201;-63
2022/12/06 09:38:08;;;;;;;;;;;;;;;;;;5076140;28;7408;-63
2022/12/06 09:40:46;;;;;;;;;;;;;;;;;;5076346;28;7385;-63
2022/12/06 09:43:34;;;;;;;;;;;;;;;;;;5076049;28;7296;-64
2022/12/06 09:46:23;;;;;;;;;;;;;;;;;;5076115;28;7214;-63
2022/12/06 09:54:57;;;;;;;;;;;;;;;;;;5063498;28;10272;-63
2022/12/06 09:57:49;;;;;;;;;;;;;;;;;;5056517;28;7556;-63
2022/12/06 10:00:22;;;;;;;;;;;;;;;;;;5055450;28;6940;-70
2022/12/06 10:02:48;;;;;;;;;;;;;;;;;;5055775;28;6948;-68
2022/12/06 10:05:32;;;;;;;;;;;;;;;;;;5055792;28;7467;-67
2022/12/06 10:11:27;;;;;;;;;;;;;;;;;;5055498;28;6681;-67
2022/12/06 10:13:53;;;;;;;;;;;;;;;;;;5037729;28;8661;-67
2022/12/06 10:22:52;;;;;;;;;;;;;;;;;;5055293;28;6677;-67
2022/12/06 10:25:18;;;;;;;;;;;;;;;;;;5055437;28;7202;-67
2022/12/06 10:28:07;;;;;;;;;;;;;;;;;;5055475;28;7095;-67
2022/12/06 10:30:38;;;;;;;;;;;;;;;;;;5055257;28;7331;-63
2022/12/06 10:33:08;;;;;;;;;;;;;;;;;;5055356;28;7088;-63
2022/12/06 10:35:49;;;;;;;;;;;;;;;;;;5055197;28;7442;-64
2022/12/06 10:38:22;;;;;;;;;;;;;;;;;;5055167;28;7111;-63
2022/12/06 10:41:17;;;;;;;;;;;;;;;;;;5055006;28;7070;-64
2022/12/06 10:43:53;;;;;;;;;;;;;;;;;;5055233;28;7203;-63
2022/12/06 10:49:42;;;;;;;;;;;;;;;;;;5054726;28;6677;-64
2022/12/06 10:52:17;;;;;;;;;;;;;;;;;;5054220;28;7077;-64
2022/12/06 10:54:58;;;;;;;;;;;;;;;;;;5055590;28;7266;-66
2022/12/06 10:57:42;;;;;;;;;;;;;;;;;;5054959;28;7154;-66
2022/12/06 11:00:33;;;;;;;;;;;;;;;;;;5054438;28;7379;-66
2022/12/06 11:03:15;;;;;;;;;;;;;;;;;;5054900;28;7066;-66
2022/12/06 11:05:58;;;;;;;;;;;;;;;;;;5054767;28;7148;-66
2022/12/06 11:09:02;;;;;;;;;;;;;;;;;;5054782;28;6950;-67
2022/12/06 11:11:34;;;;;;;;;;;;;;;;;;4974366;28;7163;-67
2022/12/06 11:17:26;;;;;;;;;;;;;;;;;;4973995;28;6682;-67
2022/12/06 11:19:59;;;;;;;;;;;;;;;;;;4957979;28;8475;-67
2022/12/06 11:22:29;;;;;;;;;;;;;;;;;;4974052;28;7140;-67
2022/12/06 11:25:12;;;;;;;;;;;;;;;;;;4973770;28;6851;-67
2022/12/06 11:27:48;;;;;;;;;;;;;;;;;;4973776;28;6862;-67
2022/12/06 11:30:16;;;;;;;;;;;;;;;;;;4973871;28;7163;-67
2022/12/06 11:35:46;;;;;;;;;;;;;;;;;;4973892;28;6674;-67
2022/12/06 11:38:16;;;;;;;;;;;;;;;;;;4973807;28;7110;-67
2022/12/06 11:40:47;;;;;;;;;;;;;;;;;;4973649;28;8546;-67
2022/12/06 11:43:25;;;;;;;;;;;;;;;;;;5046799;28;6878;-67
2022/12/06 11:45:54;;;;;;;;;;;;;;;;;;5054599;28;7049;-67
2022/12/06 11:48:24;;;;;;;;;;;;;;;;;;5058314;28;7043;-67
2022/12/06 11:50:52;;;;;;;;;;;;;;;;;;5058272;28;7080;-67
2022/12/06 11:53:36;;;;;;;;;;;;;;;;;;5058375;28;7060;-68
2022/12/06 11:56:27;;;;;;;;;;;;;;;;;;5058401;28;7461;-70
2022/12/06 11:59:12;;;;;;;;;;;;;;;;;;5057968;28;7113;-68
2022/12/06 12:01:49;;;;;;;;;;;;;;;;;;5058056;28;7167;-68
2022/12/06 12:07:16;;;;;;;;;;;;;;;;;;5058431;28;6804;-67
2022/12/06 12:09:52;;;;;;;;;;;;;;;;;;5058301;28;7131;-67
2022/12/06 12:15:44;;;;;;;;;;;;;;;;;;5057682;28;6685;-67
2022/12/06 12:18:29;;;;;;;;;;;;;;;;;;5057851;28;7457;-67
2022/12/06 12:20:57;;;;;;;;;;;;;;;;;;5057752;28;7411;-63
2022/12/06 12:23:45;;;;;;;;;;;;;;;;;;5057475;28;7121;-64
2022/12/06 12:26:12;;;;;;;;;;;;;;;;;;5057725;28;7156;-63
2022/12/06 12:28:39;;;;;;;;;;;;;;;;;;5057634;28;6954;-63
2022/12/06 12:31:21;;;;;;;;;;;;;;;;;;5057491;28;7190;-64
2022/12/06 12:33:48;;;;;;;;;;;;;;;;;;5057530;28;7120;-63
2022/12/06 12:36:16;;;;;;;;;;;;;;;;;;5057496;28;7207;-64
2022/12/06 12:42:01;;;;;;;;;;;;;;;;;;5057263;28;6740;-63
2022/12/06 12:44:37;;;;;;;;;;;;;;;;;;5057068;28;7180;-63
2022/12/06 12:47:13;;;;;;;;;;;;;;;;;;5057400;28;7187;-65
2022/12/06 12:49:39;;;;;;;;;;;;;;;;;;5056842;28;8045;-63
2022/12/06 12:52:24;;;;;;;;;;;;;;;;;;5057097;28;6964;-64
2022/12/06 12:55:14;;;;;;;;;;;;;;;;;;5039139;28;6973;-64
2022/12/06 12:57:42;;;;;;;;;;;;;;;;;;5055735;28;7387;-63
2022/12/06 13:00:15;;;;;;;;;;;;;;;;;;5056119;28;7167;-64
2022/12/06 13:02:57;;;;;;;;;;;;;;;;;;5056948;28;7175;-64
2022/12/06 13:05:28;;;;;;;;;;;;;;;;;;5057388;28;7171;-64
2022/12/06 13:07:59;;;;;;;;;;;;;;;;;;5056763;28;7164;-63
2022/12/06 13:10:50;;;;;;;;;;;;;;;;;;5056433;28;7133;-64
2022/12/06 13:13:19;;;;;;;;;;;;;;;;;;5056557;28;7093;-63
2022/12/06 13:15:57;;;;;;;;;;;;;;;;;;5056549;28;7120;-64
2022/12/06 13:18:28;;;;;;;;;;;;;;;;;;5056661;28;7146;-63
2022/12/06 13:20:57;;;;;;;;;;;;;;;;;;5056510;28;7128;-64
2022/12/06 13:23:26;;;;;;;;;;;;;;;;;;5056688;28;7291;-64
2022/12/06 13:26:06;;;;;;;;;;;;;;;;;;5056447;28;7145;-63
2022/12/06 13:28:39;;;;;;;;;;;;;;;;;;5056499;28;7120;-63
2022/12/06 13:31:11;;;;;;;;;;;;;;;;;;5056399;28;7155;-63
2022/12/06 13:33:43;;;;;;;;;;;;;;;;;;5063506;28;7235;-63
2022/12/06 13:36:23;;;;;;;;;;;;;;;;;;5076282;28;6962;-64
2022/12/06 13:38:48;;;;;;;;;;;;;;;;;;5075819;28;6853;-64
2022/12/06 13:42:16;;;;;;;;;;;;;;;;;;5075917;28;7118;-63
2022/12/06 13:44:58;;;;;;;;;;;;;;;;;;5055770;28;7740;-63
2022/12/06 13:47:49;;;;;;;;;;;;;;;;;;5025799;28;7053;-64
2022/12/06 13:50:17;;;;;;;;;;;;;;;;;;5056167;28;7181;-64
2022/12/06 13:52:44;;;;;;;;;;;;;;;;;;5056266;28;7061;-63
2022/12/06 13:55:24;;;;;;;;;;;;;;;;;;5075366;28;7096;-63
2022/12/06 14:00:54;;;;;;;;;;;;;;;;;;5054819;28;6934;-63
2022/12/06 14:03:40;;;;;;;;;;;;;;;;;;5071025;28;7067;-63
2022/12/06 14:06:11;;;;;;;;;;;;;;;;;;5075888;28;7312;-63
2022/12/06 14:08:42;;;;;;;;;;;;;;;;;;5075118;28;6935;-63
2022/12/06 14:11:30;;;;;;;;;;;;;;;;;;5075573;28;7188;-64
2022/12/06 14:13:59;;;;;;;;;;;;;;;;;;5076606;28;7134;-64
2022/12/06 14:16:37;;;;;;;;;;;;;;;;;;5075625;28;6955;-64
2022/12/06 14:22:21;;;;;;;;;;;;;;;;;;5075299;28;6985;-64
2022/12/06 14:25:07;;;;;;;;;;;;;;;;;;5075554;28;7149;-63
2022/12/06 14:27:50;;;;;;;;;;;;;;;;;;5061942;28;8307;-64
2022/12/06 14:30:21;;;;;;;;;;;;;;;;;;5075065;28;7190;-63
2022/12/06 14:32:49;;;;;;;;;;;;;;;;;;5075424;28;7060;-64
2022/12/06 14:35:16;;;;;;;;;;;;;;;;;;5075235;28;7222;-64
2022/12/06 14:37:50;;;;;;;;;;;;;;;;;;5075181;28;7584;-63
2022/12/06 14:43:19;;;;;;;;;;;;;;;;;;5074858;28;6689;-63
2022/12/06 14:45:52;;;;;;;;;;;;;;;;;;5075193;28;7246;-64
2022/12/06 14:48:19;;;;;;;;;;;;;;;;;;5074997;28;7122;-64
2022/12/06 14:50:50;;;;;;;;;;;;;;;;;;5074827;28;7116;-64
2022/12/06 14:53:43;;;;;;;;;;;;;;;;;;5074584;28;7198;-64
2022/12/06 14:56:28;;;;;;;;;;;;;;;;;;5056980;28;8636;-63
2022/12/06 14:59:08;;;;;;;;;;;;;;;;;;5074505;28;7035;-63
2022/12/06 15:01:35;;;;;;;;;;;;;;;;;;5074393;28;7214;-63
2022/12/06 15:04:24;;;;;;;;;;;;;;;;;;5075348;28;8766;-64
2022/12/06 15:06:55;;;;;;;;;;;;;;;;;;5075188;28;6949;-66
2022/12/06 15:09:21;;;;;;;;;;;;;;;;;;5075179;28;7381;-66
2022/12/06 15:14:56;;;;;;;;;;;;;;;;;;5075015;28;6787;-66
2022/12/06 15:17:33;;;;;;;;;;;;;;;;;;5074347;28;6954;-66
2022/12/06 15:19:58;;;;;;;;;;;;;;;;;;5074334;28;7095;-66
2022/12/06 15:22:28;;;;;;;;;;;;;;;;;;5074030;28;7077;-66
2022/12/06 15:24:56;;;;;;;;;;;;;;;;;;5074530;28;7110;-68
2022/12/06 15:27:25;;;;;;;;;;;;;;;;;;5074513;28;7011;-68
2022/12/06 15:29:51;;;;;;;;;;;;;;;;;;5074127;28;7044;-68
2022/12/06 15:32:21;;;;;;;;;;;;;;;;;;5074628;28;7190;-68
2022/12/06 15:34:47;;;;;;;;;;;;;;;;;;5074485;28;7202;-68
2022/12/06 15:37:24;;;;;;;;;;;;;;;;;;5074501;28;6941;-67
2022/12/06 15:39:49;;;;;;;;;;;;;;;;;;5074214;28;7146;-67
2022/12/06 15:42:18;;;;;;;;;;;;;;;;;;5074445;28;7105;-67
2022/12/06 15:44:57;;;;;;;;;;;;;;;;;;5074500;28;6979;-67
2022/12/06 15:47:23;;;;;;;;;;;;;;;;;;5074457;28;7002;-67
2022/12/06 15:49:56;;;;;;;;;;;;;;;;;;5074946;28;7059;-67
2022/12/06 15:52:22;;;;;;;;;;;;;;;;;;5074308;28;7114;-67
2022/12/06 15:54:54;;;;;;;;;;;;;;;;;;5074111;28;7370;-67
2022/12/06 15:57:20;;;;;;;;;;;;;;;;;;5074105;28;7224;-67
2022/12/06 15:59:46;;;;;;;;;;;;;;;;;;5074238;28;7059;-67
2022/12/06 16:02:14;;;;;;;;;;;;;;;;;;5072620;28;7075;-63
2022/12/06 16:05:01;;;;;;;;;;;;;;;;;;5074382;28;7347;-63
2022/12/06 16:07:27;;;;;;;;;;;;;;;;;;5074279;28;7366;-64
2022/12/06 16:09:53;;;;;;;;;;;;;;;;;;5075018;28;7026;-63
2022/12/06 16:15:21;;;;;;;;;;;;;;;;;;5074048;28;7535;-63
2022/12/06 16:17:47;;;;;;;;;;;;;;;;;;5074129;28;7138;-64
2022/12/06 16:26:00;;;;;;;;;;;;;;;;;;5074214;28;6894;-63
2022/12/06 16:28:42;;;;;;;;;;;;;;;;;;5074291;28;7145;-63
2022/12/06 16:31:14;;;;;;;;;;;;;;;;;;5073732;28;7130;-63
2022/12/06 16:33:40;;;;;;;;;;;;;;;;;;5077797;28;7123;-64
2022/12/06 16:36:27;;;;;;;;;;;;;;;;;;5078395;28;7274;-63
2022/12/06 16:38:54;;;;;;;;;;;;;;;;;;5077285;28;7188;-63
2022/12/06 16:41:26;;;;;;;;;;;;;;;;;;5077530;28;7252;-66
2022/12/06 16:46:46;;;;;;;;;;;;;;;;;;5077543;28;7145;-66
2022/12/06 16:49:32;;;;;;;;;;;;;;;;;;5076904;28;6921;-66
2022/12/06 16:51:58;;;;;;;;;;;;;;;;;;5077337;28;7259;-67
2022/12/06 16:54:30;;;;;;;;;;;;;;;;;;5077227;28;6931;-67
2022/12/06 16:56:55;;;;;;;;;;;;;;;;;;5077237;28;6944;-67
2022/12/06 16:59:21;;;;;;;;;;;;;;;;;;5058937;28;8556;-67
2022/12/06 17:01:49;;;;;;;;;;;;;;;;;;5076697;28;7158;-67
2022/12/06 17:04:15;;;;;;;;;;;;;;;;;;5077160;28;7142;-67
2022/12/06 17:06:41;;;;;;;;;;;;;;;;;;5077146;28;7058;-67
2022/12/06 17:12:12;;;;;;;;;;;;;;;;;;5076663;28;6697;-67
2022/12/06 17:14:38;;;;;;;;;;;;;;;;;;5076550;28;8612;-67
2022/12/06 17:17:30;;;;;;;;;;;;;;;;;;5077411;28;6976;-67
2022/12/06 17:19:56;;;;;;;;;;;;;;;;;;5072750;28;7116;-67
2022/12/06 17:22:22;;;;;;;;;;;;;;;;;;5076796;28;7065;-67
2022/12/06 17:24:47;;;;;;;;;;;;;;;;;;5076455;28;7365;-67
2022/12/06 17:27:13;;;;;;;;;;;;;;;;;;5076738;28;7102;-67
2022/12/06 17:29:59;;;;;;;;;;;;;;;;;;5076158;28;7121;-67
2022/12/06 17:32:25;;;;;;;;;;;;;;;;;;5076309;28;7234;-67
2022/12/06 17:35:08;;;;;;;;;;;;;;;;;;5076507;28;7126;-67
2022/12/06 17:37:34;;;;;;;;;;;;;;;;;;5076450;28;7149;-67
2022/12/06 17:40:17;;;;;;;;;;;;;;;;;;5058637;28;8474;-67
2022/12/06 17:45:27;;;;;;;;;;;;;;;;;;5075817;28;6801;-67
2022/12/06 17:47:53;;;;;;;;;;;;;;;;;;5076161;28;7173;-67
2022/12/06 17:50:19;;;;;;;;;;;;;;;;;;5076165;28;7140;-67
2022/12/06 17:53:18;;;;;;;;;;;;;;;;;;5076116;28;7586;-67
2022/12/06 17:55:44;;;;;;;;;;;;;;;;;;5076188;28;7324;-67
2022/12/06 17:58:11;;;;;;;;;;;;;;;;;;5075612;28;7346;-67
2022/12/06 18:00:36;;;;;;;;;;;;;;;;;;5075468;28;7176;-67
2022/12/06 18:03:02;;;;;;;;;;;;;;;;;;5075487;28;7087;-67
2022/12/06 18:05:46;;;;;;;;;;;;;;;;;;5075658;28;6942;-67
2022/12/06 18:08:12;;;;;;;;;;;;;;;;;;5075834;28;7460;-67
2022/12/06 18:10:56;;;;;;;;;;;;;;;;;;5075560;28;7076;-67
2022/12/06 18:13:22;;;;;;;;;;;;;;;;;;5075656;28;7293;-67
2022/12/06 18:15:51;;;;;;;;;;;;;;;;;;5075465;28;7179;-67
2022/12/06 18:18:16;;;;;;;;;;;;;;;;;;5075551;28;7227;-67
2022/12/06 18:20:42;;;;;;;;;;;;;;;;;;5075225;28;6966;-67
2022/12/06 18:23:09;;;;;;;;;;;;;;;;;;5075596;28;7111;-67
2022/12/06 18:25:39;;;;;;;;;;;;;;;;;;5075476;28;6990;-67
2022/12/06 18:28:04;;;;;;;;;;;;;;;;;;5075463;28;7173;-67
2022/12/06 18:30:30;;;;;;;;;;;;;;;;;;5075364;28;7216;-67
2022/12/06 18:33:00;;;;;;;;;;;;;;;;;;5074964;28;8125;-67
2022/12/06 18:35:26;;;;;;;;;;;;;;;;;;5075298;28;7107;-67
2022/12/06 18:37:51;;;;;;;;;;;;;;;;;;5057261;28;8429;-67
2022/12/06 18:40:17;;;;;;;;;;;;;;;;;;5076148;28;7114;-67
2022/12/06 18:42:42;;;;;;;;;;;;;;;;;;5074886;28;6933;-67
2022/12/06 18:45:08;;;;;;;;;;;;;;;;;;5075051;28;7037;-67
2022/12/06 18:47:34;;;;;;;;;;;;;;;;;;5075183;28;7097;-67
2022/12/06 18:50:00;;;;;;;;;;;;;;;;;;5074534;28;7203;-67
2022/12/06 18:52:26;;;;;;;;;;;;;;;;;;5074947;28;6967;-67
2022/12/06 18:54:52;;;;;;;;;;;;;;;;;;5075474;28;7052;-67
2022/12/06 18:57:20;;;;;;;;;;;;;;;;;;5074967;28;7094;-67
2022/12/06 18:59:46;;;;;;;;;;;;;;;;;;5074717;28;6854;-67
2022/12/06 19:02:12;;;;;;;;;;;;;;;;;;5073808;28;7303;-67
2022/12/06 19:04:38;;;;;;;;;;;;;;;;;;5074779;28;7467;-67
2022/12/06 19:07:11;;;;;;;;;;;;;;;;;;5074494;28;7298;-67
2022/12/06 19:09:37;;;;;;;;;;;;;;;;;;5074330;28;6974;-67
2022/12/06 19:12:03;;;;;;;;;;;;;;;;;;5074517;28;7417;-67
2022/12/06 19:14:41;;;;;;;;;;;;;;;;;;5074749;28;7188;-67
2022/12/06 19:17:10;;;;;;;;;;;;;;;;;;5074488;28;7993;-67
2022/12/06 19:19:45;;;;;;;;;;;;;;;;;;5074287;28;6950;-67